Terminal Aerodrome Forecast
Issued by NWS

Home | Current Version | Previous Version | Graphics & Text | Print | Product List | Glossary On
Versions: 1 2 3 4 5 6 7 8 9 10 11 12 13 14
658
FTUS43 KMPX 121140
TAFRWF
TAF
KRWF 121140Z 1212/1312 29008KT P6SM FEW200
     FM121400 25007KT P6SM SCT025 OVC040
      TEMPO 1215/1219 OVC025
     FM122100 21009KT P6SM SCT100
     FM130700 25008KT P6SM BKN200
     FM131000 30012G18KT P6SM OVC070=

USA.gov is the U.S. government's official web portal to all federal, state and local government web resources and services.